createdAt,value
2023-04-05T00:02:14.211Z,64.58
2023-04-05T00:04:50.552Z,64.79
2023-04-05T00:07:21.787Z,64.76
2023-04-05T00:09:51.674Z,64.70
2023-04-05T00:12:21.114Z,64.48
2023-04-05T00:14:50.759Z,64.63
2023-04-05T00:17:22.775Z,64.82
2023-04-05T00:19:58.058Z,64.71
2023-04-05T00:22:36.020Z,64.99
2023-04-05T00:25:05.343Z,64.98
2023-04-05T00:27:34.812Z,65.38
2023-04-05T00:30:04.254Z,65.26
2023-04-05T00:32:36.367Z,65.12
2023-04-05T00:35:05.966Z,65.64
2023-04-05T00:37:35.373Z,65.55
2023-04-05T00:40:05.274Z,65.84
2023-04-05T00:42:34.576Z,65.87
2023-04-05T00:45:03.910Z,65.95
2023-04-05T00:47:35.967Z,65.87
2023-04-05T00:50:05.667Z,65.70
2023-04-05T00:52:37.917Z,65.76
2023-04-05T00:55:10.132Z,65.97
2023-04-05T00:57:39.979Z,66.01
2023-04-05T01:00:12.062Z,65.85
2023-04-05T01:02:55.863Z,66.07
2023-04-05T01:05:38.291Z,65.15
2023-04-05T01:08:14.797Z,65.65
2023-04-05T01:10:49.353Z,65.46
2023-04-05T01:13:19.330Z,65.85
2023-04-05T01:15:48.719Z,65.77
2023-04-05T01:18:22.083Z,66.00
2023-04-05T01:21:00.446Z,66.69
2023-04-05T01:23:40.658Z,66.81
2023-04-05T01:26:33.720Z,66.37
2023-04-05T01:29:30.899Z,66.17
2023-04-05T01:32:05.801Z,65.86
2023-04-05T01:34:42.792Z,66.16
2023-04-05T01:37:17.854Z,66.30
2023-04-05T01:39:49.093Z,65.87
2023-04-05T01:42:24.881Z,65.93
2023-04-05T01:44:54.648Z,65.88
2023-04-05T01:47:29.700Z,65.98
2023-04-05T01:49:59.076Z,65.71
2023-04-05T01:52:28.371Z,65.55
2023-04-05T01:54:57.686Z,65.53
2023-04-05T01:57:27.082Z,65.74
2023-04-05T01:59:56.456Z,65.77
2023-04-05T02:02:25.912Z,65.67
2023-04-05T02:04:57.888Z,65.87
2023-04-05T02:07:27.389Z,66.11
2023-04-05T02:09:56.692Z,66.28
2023-04-05T02:12:26.025Z,66.01
2023-04-05T02:14:55.353Z,66.07
2023-04-05T02:17:24.692Z,66.24
2023-04-05T02:19:54.001Z,66.03
2023-04-05T02:22:25.903Z,66.28
2023-04-05T02:24:55.441Z,66.49
2023-04-05T02:27:24.772Z,66.39
2023-04-05T02:29:55.886Z,65.98
2023-04-05T02:32:25.260Z,65.98
2023-04-05T02:34:54.651Z,66.27
2023-04-05T02:37:27.334Z,66.37
2023-04-05T02:39:56.855Z,66.43
2023-04-05T02:42:26.329Z,66.53
2023-04-05T02:44:56.648Z,66.69
2023-04-05T02:47:25.994Z,66.26
2023-04-05T02:49:55.334Z,66.11
2023-04-05T02:52:27.231Z,66.57
2023-04-05T02:54:56.535Z,67.33
2023-04-05T02:57:26.014Z,68.77
2023-04-05T02:59:55.643Z,68.93
2023-04-05T03:02:25.008Z,67.78
2023-04-05T03:04:55.043Z,67.95
2023-04-05T03:07:27.934Z,67.37
2023-04-05T03:09:58.238Z,67.56
2023-04-05T03:12:27.801Z,67.40
2023-04-05T03:14:57.145Z,67.71
2023-04-05T03:17:26.553Z,67.45
2023-04-05T03:19:55.877Z,67.28
2023-04-05T03:22:28.228Z,66.78
2023-04-05T03:24:57.595Z,67.18
2023-04-05T03:27:27.312Z,67.28
2023-04-05T03:29:56.600Z,67.46
2023-04-05T03:32:25.938Z,67.28
2023-04-05T03:34:55.476Z,66.95
2023-04-05T03:37:27.391Z,67.43
2023-04-05T03:39:56.844Z,67.13
2023-04-05T03:42:26.140Z,67.01
2023-04-05T03:44:56.188Z,66.99
2023-04-05T03:47:25.702Z,67.10
2023-04-05T03:49:55.052Z,67.36
2023-04-05T03:52:27.418Z,67.41
2023-04-05T03:54:56.764Z,67.49
2023-04-05T03:57:26.225Z,67.37
2023-04-05T03:59:55.551Z,67.25
2023-04-05T04:02:25.226Z,66.96
2023-04-05T04:04:54.754Z,67.44
2023-04-05T04:07:26.902Z,67.52
2023-04-05T04:09:56.664Z,67.41
2023-04-05T04:12:26.106Z,67.42
2023-04-05T04:14:55.435Z,68.01
2023-04-05T04:17:31.407Z,68.11
2023-04-05T04:20:01.585Z,68.21
2023-04-05T04:22:33.553Z,68.73
2023-04-05T04:25:04.718Z,68.62
2023-04-05T04:27:36.394Z,68.45
2023-04-05T04:30:06.447Z,68.08
2023-04-05T04:32:50.313Z,68.08
2023-04-05T04:35:20.990Z,67.95
2023-04-05T04:37:55.553Z,68.29
2023-04-05T04:40:26.035Z,68.14
2023-04-05T04:42:58.783Z,67.96
2023-04-05T04:45:29.257Z,68.21
2023-04-05T04:47:59.973Z,68.45
2023-04-05T04:50:30.485Z,68.46
2023-04-05T04:53:02.898Z,68.88
2023-04-05T04:55:33.677Z,69.04
2023-04-05T04:58:09.913Z,68.91
2023-04-05T05:00:42.073Z,68.99
2023-04-05T05:03:11.703Z,68.89
2023-04-05T05:05:45.497Z,68.80
2023-04-05T05:08:20.615Z,68.62
2023-04-05T05:10:54.456Z,68.63
2023-04-05T05:13:24.065Z,68.87
2023-04-05T05:15:53.856Z,69.14
2023-04-05T05:18:23.272Z,69.16
2023-04-05T05:20:54.165Z,69.18
2023-04-05T05:23:26.828Z,69.59
2023-04-05T05:26:00.951Z,69.72
2023-04-05T05:28:30.433Z,69.60
2023-04-05T05:30:59.793Z,69.64
2023-04-05T05:33:29.244Z,70.23
2023-04-05T05:35:58.674Z,70.07
2023-04-05T05:38:30.742Z,70.11
2023-04-05T05:41:00.659Z,70.17
2023-04-05T05:43:29.969Z,70.43
2023-04-05T05:46:03.355Z,70.48
2023-04-05T05:48:33.406Z,70.31
2023-04-05T05:51:09.650Z,70.80
2023-04-05T05:53:42.815Z,71.04
2023-04-05T05:56:12.141Z,71.32
2023-04-05T05:58:42.176Z,71.06
2023-04-05T06:01:12.283Z,70.95
2023-04-05T06:03:41.737Z,71.22
2023-04-05T06:06:11.419Z,71.50
2023-04-05T06:08:43.569Z,71.70
2023-04-05T06:11:20.281Z,71.72
2023-04-05T06:13:49.793Z,71.76
2023-04-05T06:16:19.194Z,71.95
2023-04-05T06:18:48.705Z,72.26
2023-04-05T06:21:18.548Z,72.84
2023-04-05T06:23:50.776Z,72.96
2023-04-05T06:26:23.089Z,72.54
2023-04-05T06:28:52.521Z,73.54
2023-04-05T06:31:23.469Z,74.32
2023-04-05T06:33:52.844Z,74.39
2023-04-05T06:36:22.146Z,75.71
2023-04-05T06:38:56.096Z,75.48
2023-04-05T06:41:25.424Z,75.15
2023-04-05T06:43:54.768Z,75.86
2023-04-05T06:46:24.688Z,76.47
2023-04-05T06:48:54.482Z,76.72
2023-04-05T06:51:23.829Z,77.25
2023-04-05T06:53:55.739Z,78.27
2023-04-05T06:56:25.039Z,78.80
2023-04-05T06:58:55.934Z,78.29
2023-04-05T07:01:26.388Z,79.32
2023-04-05T07:03:56.299Z,80.97
2023-04-05T07:06:25.956Z,81.66
2023-04-05T07:08:58.064Z,81.37
2023-04-05T07:11:27.412Z,80.76
2023-04-05T07:13:56.721Z,79.70
2023-04-05T07:16:26.184Z,79.36
2023-04-05T07:18:55.564Z,77.92
2023-04-05T07:21:24.868Z,77.78
2023-04-05T07:23:56.166Z,79.81
2023-04-05T07:26:29.072Z,80.65
2023-04-05T07:28:58.451Z,82.21
2023-04-05T07:31:27.816Z,84.43
2023-04-05T07:33:58.251Z,85.02
2023-04-05T07:36:28.401Z,85.78
2023-04-05T07:38:57.708Z,87.09
2023-04-05T07:41:33.619Z,87.69
2023-04-05T07:44:03.363Z,89.16
2023-04-05T07:46:33.121Z,89.13
2023-04-05T07:49:02.437Z,88.74
2023-04-05T07:51:35.369Z,89.56
2023-04-05T07:54:05.597Z,90.34
2023-04-05T07:56:39.708Z,91.48
2023-04-05T07:59:09.052Z,92.27
2023-04-05T08:01:38.393Z,92.65
2023-04-05T08:04:07.866Z,90.99
2023-04-05T08:06:37.321Z,90.30
2023-04-05T08:09:08.373Z,92.62
2023-04-05T08:11:40.536Z,88.00
2023-04-05T08:14:09.908Z,86.10
2023-04-05T08:16:39.454Z,84.21
2023-04-05T08:19:08.913Z,84.51
2023-04-05T08:21:38.224Z,82.99
2023-04-05T08:24:08.112Z,83.28
2023-04-05T08:26:41.879Z,80.85
2023-04-05T08:29:11.374Z,84.19
2023-04-05T08:31:40.745Z,83.65
2023-04-05T08:34:10.209Z,79.90
2023-04-05T08:36:39.571Z,77.09
2023-04-05T08:39:08.901Z,76.29
2023-04-05T08:41:44.747Z,74.65
2023-04-05T08:44:14.756Z,73.69
2023-04-05T08:46:46.871Z,73.70
2023-04-05T08:49:16.226Z,77.33
2023-04-05T08:51:45.558Z,76.48
2023-04-05T08:54:14.988Z,75.19
2023-04-05T08:56:51.653Z,75.94
2023-04-05T08:59:22.281Z,73.43
2023-04-05T09:01:53.523Z,73.67
2023-04-05T09:04:25.022Z,73.44
2023-04-05T09:06:54.975Z,73.88
2023-04-05T09:09:25.507Z,72.97
2023-04-05T09:11:58.575Z,71.98
2023-04-05T09:14:29.334Z,70.47
2023-04-05T09:16:59.147Z,69.61
2023-04-05T09:19:28.514Z,69.34
2023-04-05T09:22:02.483Z,68.84
2023-04-05T09:24:37.068Z,68.93
2023-04-05T09:27:11.443Z,66.66
2023-04-05T09:29:42.548Z,67.29
2023-04-05T09:32:13.212Z,69.21
2023-04-05T09:34:44.053Z,65.08
2023-04-05T09:37:17.744Z,64.83
2023-04-05T09:39:49.414Z,69.98
2023-04-05T09:42:23.198Z,71.19
2023-04-05T09:44:54.495Z,70.30
2023-04-05T09:47:25.212Z,67.48
2023-04-05T09:49:54.712Z,67.05
2023-04-05T09:52:25.936Z,65.12
2023-04-05T09:54:56.916Z,64.02
2023-04-05T09:57:30.755Z,61.74
2023-04-05T10:00:00.138Z,61.52
2023-04-05T10:02:39.454Z,63.81
2023-04-05T10:05:12.511Z,66.02
2023-04-05T10:07:42.277Z,65.95
2023-04-05T10:10:13.332Z,67.85
2023-04-05T10:12:46.809Z,66.89
2023-04-05T10:15:16.791Z,66.41
2023-04-05T10:17:55.703Z,64.06
2023-04-05T10:20:26.673Z,61.97
2023-04-05T10:23:10.591Z,60.84
2023-04-05T10:25:52.297Z,62.25
2023-04-05T10:28:33.943Z,60.32
2023-04-05T10:31:14.183Z,58.50
2023-04-05T10:33:48.150Z,60.26
2023-04-05T10:36:26.394Z,58.66
2023-04-05T10:39:04.415Z,60.81
2023-04-05T10:41:38.009Z,59.62
2023-04-05T10:44:25.015Z,63.49
2023-04-05T10:46:56.975Z,60.41
2023-04-05T10:49:35.976Z,62.21
2023-04-05T10:52:05.758Z,59.43
2023-04-05T10:54:37.243Z,58.38
2023-04-05T10:57:10.182Z,59.34
2023-04-05T10:59:48.995Z,57.87
2023-04-05T11:02:19.311Z,58.04
2023-04-05T11:04:48.802Z,57.46
2023-04-05T11:07:19.338Z,60.82
2023-04-05T11:09:58.148Z,60.29
2023-04-05T11:13:00.734Z,62.42
2023-04-05T11:15:37.307Z,61.82
2023-04-05T11:18:12.768Z,64.81
2023-04-05T11:20:53.087Z,59.39
2023-04-05T11:23:24.969Z,58.93
2023-04-05T11:25:57.678Z,57.47
2023-04-05T11:28:28.764Z,58.35
2023-04-05T11:31:02.166Z,60.12
2023-04-05T11:34:10.504Z,60.42
2023-04-05T11:36:42.221Z,60.73
2023-04-05T11:39:27.362Z,61.60
2023-04-05T11:41:58.729Z,60.14
2023-04-05T11:44:28.081Z,58.90
2023-04-05T11:47:00.042Z,58.26
2023-04-05T11:49:29.488Z,58.15
2023-04-05T11:51:58.828Z,56.01
2023-04-05T11:54:32.575Z,57.89
2023-04-05T11:57:02.268Z,57.57
2023-04-05T11:59:35.544Z,57.19
2023-04-05T12:02:09.365Z,56.94
2023-04-05T12:04:39.695Z,56.82
2023-04-05T12:07:16.700Z,56.28
2023-04-05T12:10:02.535Z,56.97
2023-04-05T12:12:36.145Z,55.89
2023-04-05T12:15:09.757Z,55.97
2023-04-05T12:17:49.987Z,55.73
2023-04-05T12:20:22.168Z,55.07
2023-04-05T12:22:52.585Z,55.23
2023-04-05T12:25:23.122Z,55.71
2023-04-05T12:27:53.387Z,56.52
2023-04-05T12:30:24.076Z,56.79
2023-04-05T12:32:58.276Z,55.32
2023-04-05T12:35:33.212Z,55.08
2023-04-05T12:38:03.672Z,56.65
2023-04-05T12:40:33.130Z,55.59
2023-04-05T12:43:06.977Z,56.25
2023-04-05T12:45:43.770Z,54.78
2023-04-05T12:48:17.288Z,56.78
2023-04-05T12:50:48.586Z,55.09
2023-04-05T12:53:23.498Z,55.20
2023-04-05T12:55:54.156Z,53.63
2023-04-05T12:58:24.541Z,53.09
2023-04-05T13:00:53.963Z,56.07
2023-04-05T13:03:29.251Z,56.81
2023-04-05T13:05:59.746Z,55.29
2023-04-05T13:08:29.660Z,54.08
2023-04-05T13:10:59.057Z,54.71
2023-04-05T13:13:28.389Z,55.33
2023-04-05T13:15:57.731Z,54.09
2023-04-05T13:18:29.711Z,54.78
2023-04-05T13:20:59.141Z,55.62
2023-04-05T13:23:28.456Z,54.68
2023-04-05T13:25:57.810Z,54.91
2023-04-05T13:28:27.491Z,54.76
2023-04-05T13:30:56.851Z,54.35
2023-04-05T13:33:29.198Z,55.37
2023-04-05T13:35:58.673Z,54.70
2023-04-05T13:38:28.061Z,56.00
2023-04-05T13:40:57.431Z,54.92
2023-04-05T13:43:28.117Z,56.73
2023-04-05T13:45:57.483Z,56.72
2023-04-05T13:48:29.458Z,57.97
2023-04-05T13:50:58.797Z,57.06
2023-04-05T13:53:28.715Z,54.88
2023-04-05T13:55:58.158Z,54.07
2023-04-05T13:58:27.454Z,55.13
2023-04-05T14:00:57.178Z,54.96
2023-04-05T14:03:29.683Z,53.43
2023-04-05T14:05:59.047Z,55.36
2023-04-05T14:08:28.449Z,52.99
2023-04-05T14:10:57.782Z,53.86
2023-04-05T14:13:27.201Z,56.56
2023-04-05T14:15:56.524Z,54.64
2023-04-05T14:18:26.179Z,54.94
2023-04-05T14:20:59.032Z,53.90
2023-04-05T14:23:29.032Z,53.68
2023-04-05T14:25:58.328Z,53.87
2023-04-05T14:28:27.717Z,52.68
2023-04-05T14:30:58.940Z,53.06
2023-04-05T14:33:29.378Z,53.12
2023-04-05T14:36:01.302Z,52.90
2023-04-05T14:38:30.782Z,53.02
2023-04-05T14:41:00.118Z,53.49
2023-04-05T14:43:29.528Z,53.22
2023-04-05T14:45:58.900Z,53.53
2023-04-05T14:48:30.322Z,52.97
2023-04-05T14:51:02.317Z,53.67
2023-04-05T14:53:31.800Z,54.08
2023-04-05T14:56:01.241Z,53.58
2023-04-05T14:58:30.771Z,53.02
2023-04-05T15:01:00.238Z,52.75
2023-04-05T15:03:31.060Z,52.76
2023-04-05T15:06:06.363Z,52.59
2023-04-05T15:08:36.024Z,55.44
2023-04-05T15:11:05.373Z,53.98
2023-04-05T15:13:34.798Z,53.76
2023-04-05T15:16:04.096Z,53.59
2023-04-05T15:18:33.400Z,53.92
2023-04-05T15:21:05.623Z,53.36
2023-04-05T15:23:35.007Z,53.79
2023-04-05T15:26:04.322Z,54.25
2023-04-05T15:28:33.650Z,53.51
2023-04-05T15:31:02.988Z,52.58
2023-04-05T15:33:32.345Z,53.70
2023-04-05T15:36:01.777Z,54.59
2023-04-05T15:38:33.673Z,54.08
2023-04-05T15:43:37.919Z,54.61
2023-04-05T15:46:07.567Z,54.08
2023-04-05T15:48:36.950Z,53.66
2023-04-05T15:51:06.468Z,54.09
2023-04-05T15:53:38.556Z,54.37
2023-04-05T15:56:08.787Z,53.98
2023-04-05T15:58:38.099Z,54.01
2023-04-05T16:01:08.024Z,54.83
2023-04-05T16:03:37.457Z,54.73
2023-04-05T16:06:06.977Z,54.33
2023-04-05T16:08:38.883Z,55.00
2023-04-05T16:11:09.769Z,54.30
2023-04-05T16:13:39.235Z,54.30
2023-04-05T16:16:09.482Z,54.40
2023-04-05T16:18:38.791Z,54.69
2023-04-05T16:21:08.121Z,55.22
2023-04-05T16:23:40.529Z,55.23
2023-04-05T16:26:09.849Z,55.12
2023-04-05T16:28:39.155Z,54.97
2023-04-05T16:31:08.542Z,55.01
2023-04-05T16:33:38.069Z,55.13
2023-04-05T16:36:07.613Z,55.20
2023-04-05T16:38:37.359Z,55.24
2023-04-05T16:41:09.253Z,54.92
2023-04-05T16:43:38.605Z,55.45
2023-04-05T16:46:08.102Z,55.19
2023-04-05T16:48:37.516Z,55.67
2023-04-05T16:51:07.361Z,55.37
2023-04-05T16:53:36.906Z,55.41
2023-04-05T16:56:09.396Z,56.16
2023-04-05T16:58:38.871Z,55.79
2023-04-05T17:01:08.430Z,56.08
2023-04-05T17:03:37.854Z,55.84
2023-04-05T17:06:08.097Z,55.74
2023-04-05T17:08:37.442Z,56.33
2023-04-05T17:11:09.486Z,56.29
2023-04-05T17:13:38.811Z,55.99
2023-04-05T17:16:09.226Z,55.46
2023-04-05T17:18:38.600Z,55.65
2023-04-05T17:21:08.914Z,55.40
2023-04-05T17:23:38.216Z,57.10
2023-04-05T17:26:10.167Z,56.29
2023-04-05T17:28:39.502Z,56.83
2023-04-05T17:31:08.888Z,57.14
2023-04-05T17:33:38.206Z,57.65
2023-04-05T17:36:08.300Z,56.89
2023-04-05T17:38:37.674Z,56.86
2023-04-05T17:41:09.733Z,57.19
2023-04-05T17:43:39.141Z,56.89
2023-04-05T17:46:09.489Z,57.65
2023-04-05T17:48:40.158Z,57.51
2023-04-05T17:51:10.940Z,58.27
2023-04-05T17:53:40.457Z,58.78
2023-04-05T17:56:12.363Z,58.72
2023-04-05T17:58:41.796Z,58.62
2023-04-05T18:01:14.846Z,59.41
2023-04-05T18:03:45.319Z,59.42
2023-04-05T18:06:16.569Z,59.20
2023-04-05T18:08:46.112Z,59.76
2023-04-05T18:11:18.065Z,59.92
2023-04-05T18:13:47.619Z,59.95
2023-04-05T18:16:16.996Z,59.49
2023-04-05T18:18:46.646Z,59.63
2023-04-05T18:21:16.020Z,59.75
2023-04-05T18:23:45.463Z,60.03
2023-04-05T18:26:15.041Z,60.05
2023-04-05T18:28:47.792Z,60.36
2023-04-05T18:31:17.182Z,59.81
2023-04-05T18:33:46.485Z,59.89
2023-04-05T18:36:15.856Z,60.39
2023-04-05T18:38:45.949Z,60.43
2023-04-05T18:41:15.377Z,60.73
2023-04-05T18:43:48.163Z,60.64
2023-04-05T18:46:18.853Z,60.87
2023-04-05T18:48:54.351Z,60.88
2023-04-05T18:51:24.392Z,60.91
2023-04-05T18:53:53.732Z,61.19
2023-04-05T18:56:23.084Z,61.47
2023-04-05T18:58:54.992Z,61.17
2023-04-05T19:01:24.598Z,61.22
2023-04-05T19:03:53.933Z,61.44
2023-04-05T19:06:23.269Z,61.53
2023-04-05T19:08:52.637Z,61.84
2023-04-05T19:11:22.162Z,61.80
2023-04-05T19:13:54.017Z,62.28
2023-04-05T19:16:25.986Z,62.34
2023-04-05T19:18:56.029Z,62.67
2023-04-05T19:21:25.461Z,62.92
2023-04-05T19:23:54.796Z,62.41
2023-04-05T19:26:24.561Z,62.90
2023-04-05T19:28:53.974Z,62.93
2023-04-05T19:31:26.659Z,62.80
2023-04-05T19:33:56.161Z,62.99
2023-04-05T19:36:26.166Z,63.62
2023-04-05T19:38:55.524Z,63.50
2023-04-05T19:41:32.581Z,63.19
2023-04-05T19:44:02.167Z,63.89
2023-04-05T19:46:34.113Z,63.24
2023-04-05T19:49:10.114Z,63.45
2023-04-05T19:51:39.643Z,64.04
2023-04-05T19:54:13.162Z,63.74
2023-04-05T19:56:42.980Z,63.80
2023-04-05T19:59:31.965Z,63.95
2023-04-05T20:02:05.507Z,63.75
2023-04-05T20:04:39.085Z,63.57
2023-04-05T20:07:10.788Z,63.46
2023-04-05T20:09:41.172Z,63.60
2023-04-05T20:12:13.253Z,63.32
2023-04-05T20:14:45.951Z,63.27
2023-04-05T20:17:19.380Z,63.09
2023-04-05T20:20:00.898Z,62.60
2023-04-05T20:22:31.357Z,63.26
2023-04-05T20:25:00.785Z,63.42
2023-04-05T20:27:30.154Z,63.41
2023-04-05T20:29:59.601Z,62.72
2023-04-05T20:32:32.083Z,62.77
2023-04-05T20:35:01.446Z,62.55
2023-04-05T20:37:30.744Z,63.22
2023-04-05T20:40:00.048Z,64.09
2023-04-05T20:42:31.613Z,64.00
2023-04-05T20:45:00.900Z,63.71
2023-04-05T20:47:32.850Z,63.91
2023-04-05T20:50:02.163Z,63.65
2023-04-05T20:52:31.781Z,63.21
2023-04-05T20:55:01.823Z,63.28
2023-04-05T20:57:31.427Z,63.25
2023-04-05T21:00:02.289Z,64.35
2023-04-05T21:02:34.379Z,65.96
2023-04-05T21:05:04.143Z,65.77
2023-04-05T21:07:34.439Z,66.28
2023-04-05T21:10:03.738Z,67.12
2023-04-05T21:12:34.849Z,67.46
2023-04-05T21:15:04.183Z,67.22
2023-04-05T21:17:36.161Z,67.10
2023-04-05T21:20:05.613Z,66.85
2023-04-05T21:22:35.002Z,65.86
2023-04-05T21:25:05.689Z,65.72
2023-04-05T21:27:35.030Z,66.05
2023-04-05T21:30:04.344Z,65.97
2023-04-05T21:32:36.295Z,65.81
2023-04-05T21:35:05.644Z,64.99
2023-04-05T21:37:35.137Z,64.94
2023-04-05T21:40:05.018Z,64.66
2023-04-05T21:42:34.960Z,64.84
2023-04-05T21:45:05.098Z,64.49
2023-04-05T21:47:37.526Z,64.38
2023-04-05T21:50:08.578Z,64.45
2023-04-05T21:52:38.419Z,64.64
2023-04-05T21:55:08.688Z,64.33
2023-04-05T21:57:38.269Z,64.39
2023-04-05T22:00:12.920Z,64.45
2023-04-05T22:02:45.524Z,64.44
2023-04-05T22:05:25.726Z,64.52
2023-04-05T22:08:03.862Z,64.11
2023-04-05T22:10:33.453Z,64.44
2023-04-05T22:13:02.824Z,65.18
2023-04-05T22:15:32.251Z,66.02
2023-04-05T22:18:05.705Z,66.95
2023-04-05T22:20:35.364Z,67.27
2023-04-05T22:23:04.707Z,67.62
2023-04-05T22:25:34.069Z,67.69
2023-04-05T22:28:03.378Z,68.07
2023-04-05T22:30:43.823Z,68.17
2023-04-05T22:33:16.376Z,67.84
2023-04-05T22:35:45.748Z,68.06
2023-04-05T22:38:15.137Z,67.90
2023-04-05T22:40:45.418Z,68.08
2023-04-05T22:43:14.920Z,67.52
2023-04-05T22:45:44.316Z,67.48
2023-04-05T22:48:16.242Z,67.44
2023-04-05T22:50:45.653Z,67.49
2023-04-05T22:53:14.966Z,67.07
2023-04-05T22:55:44.299Z,67.09
2023-04-05T22:58:13.639Z,67.57
2023-04-05T23:00:43.510Z,67.64
2023-04-05T23:03:12.887Z,67.41
2023-04-05T23:05:45.107Z,67.46
2023-04-05T23:08:14.419Z,67.22
2023-04-05T23:10:43.748Z,66.86
2023-04-05T23:13:13.089Z,66.52
2023-04-05T23:15:42.505Z,66.47
2023-04-05T23:18:11.913Z,66.35
2023-04-05T23:20:43.833Z,66.06
2023-04-05T23:23:13.771Z,66.21
2023-04-05T23:25:43.068Z,66.59
2023-04-05T23:28:12.408Z,66.69
2023-04-05T23:30:41.732Z,66.55
2023-04-05T23:33:13.501Z,67.29
2023-04-05T23:35:46.071Z,66.71
2023-04-05T23:38:15.407Z,66.23
2023-04-05T23:40:44.729Z,66.58
2023-04-05T23:43:14.157Z,66.38
2023-04-05T23:45:43.475Z,65.88
2023-04-05T23:48:12.801Z,66.55
2023-04-05T23:50:42.873Z,66.62
2023-04-05T23:53:14.776Z,67.29
2023-04-05T23:55:44.086Z,67.24
2023-04-05T23:58:13.397Z,67.88
